sensor_id;sensor_type;location;lat;lon;timestamp;temperature;humidity
64634;DHT22;51043;52.406;9.690;2022-07-22T00:01:12;18.20;99.90
64634;DHT22;51043;52.406;9.690;2022-07-22T00:03:39;18.20;99.90
64634;DHT22;51043;52.406;9.690;2022-07-22T00:06:06;18.20;99.90
64634;DHT22;51043;52.406;9.690;2022-07-22T00:08:33;18.20;99.90
64634;DHT22;51043;52.406;9.690;2022-07-22T00:11:00;18.20;99.90
64634;DHT22;51043;52.406;9.690;2022-07-22T00:13:27;18.20;99.90
64634;DHT22;51043;52.406;9.690;2022-07-22T00:15:53;18.10;99.90
64634;DHT22;51043;52.406;9.690;2022-07-22T00:18:20;18.10;99.90
64634;DHT22;51043;52.406;9.690;2022-07-22T00:20:47;18.10;99.90
64634;DHT22;51043;52.406;9.690;2022-07-22T00:23:14;18.10;99.90
64634;DHT22;51043;52.406;9.690;2022-07-22T00:25:41;18.10;99.90
64634;DHT22;51043;52.406;9.690;2022-07-22T00:28:08;18.20;99.90
64634;DHT22;51043;52.406;9.690;2022-07-22T00:30:35;18.30;99.90
64634;DHT22;51043;52.406;9.690;2022-07-22T00:33:03;18.30;99.90
64634;DHT22;51043;52.406;9.690;2022-07-22T00:35:30;18.30;99.90
64634;DHT22;51043;52.406;9.690;2022-07-22T00:37:57;18.20;99.90
64634;DHT22;51043;52.406;9.690;2022-07-22T00:40:24;18.30;99.90
64634;DHT22;51043;52.406;9.690;2022-07-22T00:42:52;18.40;99.90
64634;DHT22;51043;52.406;9.690;2022-07-22T00:45:19;18.40;99.90
64634;DHT22;51043;52.406;9.690;2022-07-22T00:47:46;18.50;99.90
64634;DHT22;51043;52.406;9.690;2022-07-22T00:50:13;18.40;99.90
64634;DHT22;51043;52.406;9.690;2022-07-22T00:52:42;18.50;99.90
64634;DHT22;51043;52.406;9.690;2022-07-22T00:55:09;18.50;99.90
64634;DHT22;51043;52.406;9.690;2022-07-22T00:57:36;18.50;99.90
64634;DHT22;51043;52.406;9.690;2022-07-22T01:00:06;18.50;99.90
64634;DHT22;51043;52.406;9.690;2022-07-22T01:02:33;18.50;99.90
64634;DHT22;51043;52.406;9.690;2022-07-22T01:05:00;18.60;99.90
64634;DHT22;51043;52.406;9.690;2022-07-22T01:07:27;18.60;99.90
64634;DHT22;51043;52.406;9.690;2022-07-22T01:09:54;18.60;99.90
64634;DHT22;51043;52.406;9.690;2022-07-22T01:12:21;18.50;99.90
64634;DHT22;51043;52.406;9.690;2022-07-22T01:14:48;18.60;99.90
64634;DHT22;51043;52.406;9.690;2022-07-22T01:17:15;18.70;99.90
64634;DHT22;51043;52.406;9.690;2022-07-22T01:19:42;18.70;99.90
64634;DHT22;51043;52.406;9.690;2022-07-22T01:22:09;18.80;99.90
64634;DHT22;51043;52.406;9.690;2022-07-22T01:24:36;18.80;99.90
64634;DHT22;51043;52.406;9.690;2022-07-22T01:27:03;18.70;99.90
64634;DHT22;51043;52.406;9.690;2022-07-22T01:29:30;18.60;99.90
64634;DHT22;51043;52.406;9.690;2022-07-22T01:31:57;18.60;99.90
64634;DHT22;51043;52.406;9.690;2022-07-22T01:34:24;18.50;99.90
64634;DHT22;51043;52.406;9.690;2022-07-22T01:36:52;18.50;99.90
64634;DHT22;51043;52.406;9.690;2022-07-22T01:39:19;18.50;99.90
64634;DHT22;51043;52.406;9.690;2022-07-22T01:41:46;18.40;99.90
64634;DHT22;51043;52.406;9.690;2022-07-22T01:44:13;18.40;99.90
64634;DHT22;51043;52.406;9.690;2022-07-22T01:46:40;18.40;99.90
64634;DHT22;51043;52.406;9.690;2022-07-22T01:49:07;18.40;99.90
64634;DHT22;51043;52.406;9.690;2022-07-22T01:51:37;18.50;99.90
64634;DHT22;51043;52.406;9.690;2022-07-22T01:54:04;18.40;99.90
64634;DHT22;51043;52.406;9.690;2022-07-22T01:56:31;18.50;99.90
64634;DHT22;51043;52.406;9.690;2022-07-22T01:58:58;18.40;99.90
64634;DHT22;51043;52.406;9.690;2022-07-22T02:01:27;18.40;99.90
64634;DHT22;51043;52.406;9.690;2022-07-22T02:03:54;18.40;99.90
64634;DHT22;51043;52.406;9.690;2022-07-22T02:06:21;18.20;99.90
64634;DHT22;51043;52.406;9.690;2022-07-22T02:08:48;18.10;99.90
64634;DHT22;51043;52.406;9.690;2022-07-22T02:11:34;18.00;99.90
64634;DHT22;51043;52.406;9.690;2022-07-22T02:14:01;17.80;99.90
64634;DHT22;51043;52.406;9.690;2022-07-22T02:16:29;17.70;99.90
64634;DHT22;51043;52.406;9.690;2022-07-22T02:18:56;17.70;99.90
64634;DHT22;51043;52.406;9.690;2022-07-22T02:21:23;17.50;99.90
64634;DHT22;51043;52.406;9.690;2022-07-22T02:23:56;17.50;99.90
64634;DHT22;51043;52.406;9.690;2022-07-22T02:26:23;17.50;99.90
64634;DHT22;51043;52.406;9.690;2022-07-22T02:28:50;17.40;99.90
64634;DHT22;51043;52.406;9.690;2022-07-22T02:31:17;17.40;99.90
64634;DHT22;51043;52.406;9.690;2022-07-22T02:33:43;17.30;99.90
64634;DHT22;51043;52.406;9.690;2022-07-22T02:36:11;17.30;99.90
64634;DHT22;51043;52.406;9.690;2022-07-22T02:38:38;17.30;99.90
64634;DHT22;51043;52.406;9.690;2022-07-22T02:41:05;17.20;99.90
64634;DHT22;51043;52.406;9.690;2022-07-22T02:43:34;17.30;99.90
64634;DHT22;51043;52.406;9.690;2022-07-22T02:46:01;17.30;99.90
64634;DHT22;51043;52.406;9.690;2022-07-22T02:48:28;17.30;99.90
64634;DHT22;51043;52.406;9.690;2022-07-22T02:50:55;17.30;99.90
64634;DHT22;51043;52.406;9.690;2022-07-22T02:53:24;17.20;99.90
64634;DHT22;51043;52.406;9.690;2022-07-22T02:55:51;17.20;99.90
64634;DHT22;51043;52.406;9.690;2022-07-22T02:58:18;17.10;99.90
64634;DHT22;51043;52.406;9.690;2022-07-22T03:00:45;17.10;99.90
64634;DHT22;51043;52.406;9.690;2022-07-22T03:03:12;17.00;99.90
64634;DHT22;51043;52.406;9.690;2022-07-22T03:05:40;17.00;99.90
64634;DHT22;51043;52.406;9.690;2022-07-22T03:08:25;17.00;99.90
64634;DHT22;51043;52.406;9.690;2022-07-22T03:10:52;17.00;99.90
64634;DHT22;51043;52.406;9.690;2022-07-22T03:13:20;16.90;99.90
64634;DHT22;51043;52.406;9.690;2022-07-22T03:15:47;16.90;99.90
64634;DHT22;51043;52.406;9.690;2022-07-22T03:18:14;16.90;99.90
64634;DHT22;51043;52.406;9.690;2022-07-22T03:20:41;16.80;99.90
64634;DHT22;51043;52.406;9.690;2022-07-22T03:23:08;16.80;99.90
64634;DHT22;51043;52.406;9.690;2022-07-22T03:25:37;16.80;99.90
64634;DHT22;51043;52.406;9.690;2022-07-22T03:28:06;16.80;99.90
64634;DHT22;51043;52.406;9.690;2022-07-22T03:30:33;16.80;99.90
64634;DHT22;51043;52.406;9.690;2022-07-22T03:32:59;16.80;99.90
64634;DHT22;51043;52.406;9.690;2022-07-22T03:35:30;16.80;99.90
64634;DHT22;51043;52.406;9.690;2022-07-22T03:37:57;16.80;99.90
64634;DHT22;51043;52.406;9.690;2022-07-22T03:40:27;16.90;99.90
64634;DHT22;51043;52.406;9.690;2022-07-22T03:42:54;16.90;99.90
64634;DHT22;51043;52.406;9.690;2022-07-22T03:45:21;16.80;99.90
64634;DHT22;51043;52.406;9.690;2022-07-22T03:47:48;16.80;99.90
64634;DHT22;51043;52.406;9.690;2022-07-22T03:50:16;16.80;99.90
64634;DHT22;51043;52.406;9.690;2022-07-22T03:52:44;16.80;99.90
64634;DHT22;51043;52.406;9.690;2022-07-22T03:55:11;16.80;99.90
64634;DHT22;51043;52.406;9.690;2022-07-22T03:57:40;16.80;99.90
64634;DHT22;51043;52.406;9.690;2022-07-22T04:00:13;16.80;99.90
64634;DHT22;51043;52.406;9.690;2022-07-22T04:02:41;16.80;99.90
64634;DHT22;51043;52.406;9.690;2022-07-22T04:05:14;16.80;99.90
64634;DHT22;51043;52.406;9.690;2022-07-22T04:07:42;16.80;99.90
64634;DHT22;51043;52.406;9.690;2022-07-22T04:10:09;16.90;99.90
64634;DHT22;51043;52.406;9.690;2022-07-22T04:12:40;16.90;99.90
64634;DHT22;51043;52.406;9.690;2022-07-22T04:15:24;16.80;99.90
64634;DHT22;51043;52.406;9.690;2022-07-22T04:17:50;16.80;99.90
64634;DHT22;51043;52.406;9.690;2022-07-22T04:20:17;16.90;99.90
64634;DHT22;51043;52.406;9.690;2022-07-22T04:23:04;16.90;99.90
64634;DHT22;51043;52.406;9.690;2022-07-22T04:25:32;16.90;99.90
64634;DHT22;51043;52.406;9.690;2022-07-22T04:27:59;16.90;99.90
64634;DHT22;51043;52.406;9.690;2022-07-22T04:30:25;16.90;99.90
64634;DHT22;51043;52.406;9.690;2022-07-22T04:32:55;16.90;99.90
64634;DHT22;51043;52.406;9.690;2022-07-22T04:35:22;17.00;99.90
64634;DHT22;51043;52.406;9.690;2022-07-22T04:38:04;16.90;99.90
64634;DHT22;51043;52.406;9.690;2022-07-22T04:40:31;16.90;99.90
64634;DHT22;51043;52.406;9.690;2022-07-22T04:42:58;16.90;99.90
64634;DHT22;51043;52.406;9.690;2022-07-22T04:45:24;16.90;99.90
64634;DHT22;51043;52.406;9.690;2022-07-22T04:47:51;17.00;99.90
64634;DHT22;51043;52.406;9.690;2022-07-22T04:50:18;16.90;99.90
64634;DHT22;51043;52.406;9.690;2022-07-22T04:52:53;16.90;99.90
64634;DHT22;51043;52.406;9.690;2022-07-22T04:55:20;17.00;99.90
64634;DHT22;51043;52.406;9.690;2022-07-22T04:57:46;17.00;99.90
64634;DHT22;51043;52.406;9.690;2022-07-22T05:00:14;17.00;99.90
64634;DHT22;51043;52.406;9.690;2022-07-22T05:02:50;17.10;99.90
64634;DHT22;51043;52.406;9.690;2022-07-22T05:05:17;17.10;99.90
64634;DHT22;51043;52.406;9.690;2022-07-22T05:07:44;17.10;99.90
64634;DHT22;51043;52.406;9.690;2022-07-22T05:10:10;17.10;99.90
64634;DHT22;51043;52.406;9.690;2022-07-22T05:12:39;17.20;99.90
64634;DHT22;51043;52.406;9.690;2022-07-22T05:15:06;17.10;99.90
64634;DHT22;51043;52.406;9.690;2022-07-22T05:17:34;17.20;99.90
64634;DHT22;51043;52.406;9.690;2022-07-22T05:20:07;17.20;99.90
64634;DHT22;51043;52.406;9.690;2022-07-22T05:22:34;17.20;99.90
64634;DHT22;51043;52.406;9.690;2022-07-22T05:25:06;17.10;99.90
64634;DHT22;51043;52.406;9.690;2022-07-22T05:27:33;17.10;99.90
64634;DHT22;51043;52.406;9.690;2022-07-22T05:30:00;17.10;99.90
64634;DHT22;51043;52.406;9.690;2022-07-22T05:32:27;17.10;99.90
64634;DHT22;51043;52.406;9.690;2022-07-22T05:34:57;17.10;99.90
64634;DHT22;51043;52.406;9.690;2022-07-22T05:37:24;17.20;99.90
64634;DHT22;51043;52.406;9.690;2022-07-22T05:39:51;17.30;99.90
64634;DHT22;51043;52.406;9.690;2022-07-22T05:42:18;17.40;99.90
64634;DHT22;51043;52.406;9.690;2022-07-22T05:44:45;17.40;99.90
64634;DHT22;51043;52.406;9.690;2022-07-22T05:47:13;17.50;99.90
64634;DHT22;51043;52.406;9.690;2022-07-22T05:49:40;17.60;99.90
64634;DHT22;51043;52.406;9.690;2022-07-22T05:52:10;17.50;99.90
64634;DHT22;51043;52.406;9.690;2022-07-22T05:54:37;17.50;99.90
64634;DHT22;51043;52.406;9.690;2022-07-22T05:57:04;17.60;99.90
64634;DHT22;51043;52.406;9.690;2022-07-22T05:59:31;17.50;99.90
64634;DHT22;51043;52.406;9.690;2022-07-22T06:01:58;17.30;99.90
64634;DHT22;51043;52.406;9.690;2022-07-22T06:04:35;17.30;99.90
64634;DHT22;51043;52.406;9.690;2022-07-22T06:07:03;17.30;99.90
64634;DHT22;51043;52.406;9.690;2022-07-22T06:09:32;17.30;99.90
64634;DHT22;51043;52.406;9.690;2022-07-22T06:11:59;17.30;99.90
64634;DHT22;51043;52.406;9.690;2022-07-22T06:14:26;17.30;99.90
64634;DHT22;51043;52.406;9.690;2022-07-22T06:16:53;17.30;99.90
64634;DHT22;51043;52.406;9.690;2022-07-22T06:19:21;17.40;99.90
64634;DHT22;51043;52.406;9.690;2022-07-22T06:21:48;17.40;99.90
64634;DHT22;51043;52.406;9.690;2022-07-22T06:24:15;17.50;99.90
64634;DHT22;51043;52.406;9.690;2022-07-22T06:26:42;17.40;99.90
64634;DHT22;51043;52.406;9.690;2022-07-22T06:29:10;17.60;99.90
64634;DHT22;51043;52.406;9.690;2022-07-22T06:31:37;17.50;99.90
64634;DHT22;51043;52.406;9.690;2022-07-22T06:34:03;17.50;99.90
64634;DHT22;51043;52.406;9.690;2022-07-22T06:36:47;17.50;99.90
64634;DHT22;51043;52.406;9.690;2022-07-22T06:39:14;17.50;99.90
64634;DHT22;51043;52.406;9.690;2022-07-22T06:41:59;17.50;99.90
64634;DHT22;51043;52.406;9.690;2022-07-22T06:44:45;17.50;99.90
64634;DHT22;51043;52.406;9.690;2022-07-22T06:47:22;17.60;99.90
64634;DHT22;51043;52.406;9.690;2022-07-22T06:49:49;17.70;99.90
64634;DHT22;51043;52.406;9.690;2022-07-22T06:52:16;17.80;99.90
64634;DHT22;51043;52.406;9.690;2022-07-22T06:54:43;18.20;99.90
64634;DHT22;51043;52.406;9.690;2022-07-22T06:57:15;18.30;99.90
64634;DHT22;51043;52.406;9.690;2022-07-22T06:59:42;18.40;99.90
64634;DHT22;51043;52.406;9.690;2022-07-22T07:02:09;18.50;99.90
64634;DHT22;51043;52.406;9.690;2022-07-22T07:04:37;18.60;99.90
64634;DHT22;51043;52.406;9.690;2022-07-22T07:07:04;18.50;99.90
64634;DHT22;51043;52.406;9.690;2022-07-22T07:09:31;18.50;99.90
64634;DHT22;51043;52.406;9.690;2022-07-22T07:12:07;18.40;99.90
64634;DHT22;51043;52.406;9.690;2022-07-22T07:15:07;18.40;99.90
64634;DHT22;51043;52.406;9.690;2022-07-22T07:17:53;18.30;99.90
64634;DHT22;51043;52.406;9.690;2022-07-22T07:20:20;18.30;99.90
64634;DHT22;51043;52.406;9.690;2022-07-22T07:22:47;18.20;99.90
64634;DHT22;51043;52.406;9.690;2022-07-22T07:25:15;17.90;99.90
64634;DHT22;51043;52.406;9.690;2022-07-22T07:27:44;17.70;99.90
64634;DHT22;51043;52.406;9.690;2022-07-22T07:30:13;17.70;99.90
64634;DHT22;51043;52.406;9.690;2022-07-22T07:32:40;17.60;99.90
64634;DHT22;51043;52.406;9.690;2022-07-22T07:35:07;17.70;99.90
64634;DHT22;51043;52.406;9.690;2022-07-22T07:37:35;17.70;99.90
64634;DHT22;51043;52.406;9.690;2022-07-22T07:40:02;17.90;99.90
64634;DHT22;51043;52.406;9.690;2022-07-22T07:42:29;18.20;99.90
64634;DHT22;51043;52.406;9.690;2022-07-22T07:44:56;18.60;99.90
64634;DHT22;51043;52.406;9.690;2022-07-22T07:47:23;19.00;99.90
64634;DHT22;51043;52.406;9.690;2022-07-22T07:49:50;19.40;99.90
64634;DHT22;51043;52.406;9.690;2022-07-22T07:52:18;19.70;99.90
64634;DHT22;51043;52.406;9.690;2022-07-22T07:54:45;20.10;99.90
64634;DHT22;51043;52.406;9.690;2022-07-22T07:57:33;20.30;99.90
64634;DHT22;51043;52.406;9.690;2022-07-22T08:00:01;20.60;99.90
64634;DHT22;51043;52.406;9.690;2022-07-22T08:02:39;20.70;99.90
64634;DHT22;51043;52.406;9.690;2022-07-22T08:05:09;20.90;99.90
64634;DHT22;51043;52.406;9.690;2022-07-22T08:07:38;21.10;99.90
64634;DHT22;51043;52.406;9.690;2022-07-22T08:10:07;21.10;99.90
64634;DHT22;51043;52.406;9.690;2022-07-22T08:13:12;20.80;99.90
64634;DHT22;51043;52.406;9.690;2022-07-22T08:15:39;20.60;99.90
64634;DHT22;51043;52.406;9.690;2022-07-22T08:18:09;20.40;99.90
64634;DHT22;51043;52.406;9.690;2022-07-22T08:20:36;20.20;99.90
64634;DHT22;51043;52.406;9.690;2022-07-22T08:23:03;19.90;99.90
64634;DHT22;51043;52.406;9.690;2022-07-22T08:25:32;19.90;99.90
64634;DHT22;51043;52.406;9.690;2022-07-22T08:27:59;20.00;99.90
64634;DHT22;51043;52.406;9.690;2022-07-22T08:30:26;20.10;99.90
64634;DHT22;51043;52.406;9.690;2022-07-22T08:32:56;20.10;99.90
64634;DHT22;51043;52.406;9.690;2022-07-22T08:35:24;20.20;99.90
64634;DHT22;51043;52.406;9.690;2022-07-22T08:37:51;20.30;99.90
64634;DHT22;51043;52.406;9.690;2022-07-22T08:40:19;20.40;99.90
64634;DHT22;51043;52.406;9.690;2022-07-22T08:42:48;20.60;99.90
64634;DHT22;51043;52.406;9.690;2022-07-22T08:45:18;21.00;99.90
64634;DHT22;51043;52.406;9.690;2022-07-22T08:47:48;21.40;99.90
64634;DHT22;51043;52.406;9.690;2022-07-22T08:50:24;21.60;99.90
64634;DHT22;51043;52.406;9.690;2022-07-22T08:52:57;21.70;99.90
64634;DHT22;51043;52.406;9.690;2022-07-22T08:55:26;21.60;99.90
64634;DHT22;51043;52.406;9.690;2022-07-22T08:57:52;21.90;99.90
64634;DHT22;51043;52.406;9.690;2022-07-22T09:00:21;21.90;99.90
64634;DHT22;51043;52.406;9.690;2022-07-22T09:02:50;21.80;99.90
64634;DHT22;51043;52.406;9.690;2022-07-22T09:05:17;21.80;99.90
64634;DHT22;51043;52.406;9.690;2022-07-22T09:08:06;21.40;99.90
64634;DHT22;51043;52.406;9.690;2022-07-22T09:11:19;21.30;99.90
64634;DHT22;51043;52.406;9.690;2022-07-22T09:14:06;21.00;99.90
64634;DHT22;51043;52.406;9.690;2022-07-22T09:16:47;20.70;99.90
64634;DHT22;51043;52.406;9.690;2022-07-22T09:19:32;20.30;99.90
64634;DHT22;51043;52.406;9.690;2022-07-22T09:22:46;20.10;99.90
64634;DHT22;51043;52.406;9.690;2022-07-22T09:25:30;19.80;99.90
64634;DHT22;51043;52.406;9.690;2022-07-22T09:28:19;19.80;99.90
64634;DHT22;51043;52.406;9.690;2022-07-22T09:31:05;20.00;99.90
64634;DHT22;51043;52.406;9.690;2022-07-22T09:33:37;20.20;99.90
64634;DHT22;51043;52.406;9.690;2022-07-22T09:36:19;20.40;99.90
64634;DHT22;51043;52.406;9.690;2022-07-22T09:38:48;20.70;99.90
64634;DHT22;51043;52.406;9.690;2022-07-22T09:41:15;20.80;99.90
64634;DHT22;51043;52.406;9.690;2022-07-22T09:43:43;21.00;99.90
64634;DHT22;51043;52.406;9.690;2022-07-22T09:46:10;21.10;99.90
64634;DHT22;51043;52.406;9.690;2022-07-22T09:48:56;21.10;99.90
64634;DHT22;51043;52.406;9.690;2022-07-22T09:51:53;21.10;99.90
64634;DHT22;51043;52.406;9.690;2022-07-22T09:54:50;21.00;99.90
64634;DHT22;51043;52.406;9.690;2022-07-22T09:57:18;21.00;99.90
64634;DHT22;51043;52.406;9.690;2022-07-22T09:59:46;21.10;99.90
64634;DHT22;51043;52.406;9.690;2022-07-22T10:02:54;21.10;99.90
64634;DHT22;51043;52.406;9.690;2022-07-22T10:05:36;21.00;99.90
64634;DHT22;51043;52.406;9.690;2022-07-22T10:08:05;21.10;99.90
64634;DHT22;51043;52.406;9.690;2022-07-22T10:10:35;21.00;99.90
64634;DHT22;51043;52.406;9.690;2022-07-22T10:13:04;21.10;99.90
64634;DHT22;51043;52.406;9.690;2022-07-22T10:15:33;20.90;99.90
64634;DHT22;51043;52.406;9.690;2022-07-22T10:18:07;20.90;99.90
64634;DHT22;51043;52.406;9.690;2022-07-22T10:20:36;20.90;99.90
64634;DHT22;51043;52.406;9.690;2022-07-22T10:23:04;20.80;99.90
64634;DHT22;51043;52.406;9.690;2022-07-22T10:26:04;20.80;99.90
64634;DHT22;51043;52.406;9.690;2022-07-22T10:28:34;20.90;99.90
64634;DHT22;51043;52.406;9.690;2022-07-22T10:31:28;20.90;99.90
64634;DHT22;51043;52.406;9.690;2022-07-22T10:33:56;21.10;99.90
64634;DHT22;51043;52.406;9.690;2022-07-22T10:36:38;21.10;99.90
64634;DHT22;51043;52.406;9.690;2022-07-22T10:39:12;21.10;99.90
64634;DHT22;51043;52.406;9.690;2022-07-22T10:41:44;20.80;99.90
64634;DHT22;51043;52.406;9.690;2022-07-22T10:44:47;20.60;99.90
64634;DHT22;51043;52.406;9.690;2022-07-22T10:47:16;20.30;99.90
64634;DHT22;51043;52.406;9.690;2022-07-22T10:49:42;20.20;99.90
64634;DHT22;51043;52.406;9.690;2022-07-22T10:52:11;20.10;99.90
64634;DHT22;51043;52.406;9.690;2022-07-22T10:55:15;20.10;99.90
64634;DHT22;51043;52.406;9.690;2022-07-22T10:57:42;20.20;99.90
64634;DHT22;51043;52.406;9.690;2022-07-22T11:00:09;20.30;99.90
64634;DHT22;51043;52.406;9.690;2022-07-22T11:02:37;20.40;99.90
64634;DHT22;51043;52.406;9.690;2022-07-22T11:05:05;20.60;99.90
64634;DHT22;51043;52.406;9.690;2022-07-22T11:07:32;20.90;99.90
64634;DHT22;51043;52.406;9.690;2022-07-22T11:10:14;21.30;99.90
64634;DHT22;51043;52.406;9.690;2022-07-22T11:12:43;21.50;99.90
64634;DHT22;51043;52.406;9.690;2022-07-22T11:15:11;21.80;99.90
64634;DHT22;51043;52.406;9.690;2022-07-22T11:17:38;21.80;99.90
64634;DHT22;51043;52.406;9.690;2022-07-22T11:20:11;21.40;99.90
64634;DHT22;51043;52.406;9.690;2022-07-22T11:22:39;21.00;99.90
64634;DHT22;51043;52.406;9.690;2022-07-22T11:25:08;21.10;99.90
64634;DHT22;51043;52.406;9.690;2022-07-22T11:27:35;21.10;99.90
64634;DHT22;51043;52.406;9.690;2022-07-22T11:30:03;21.40;99.90
64634;DHT22;51043;52.406;9.690;2022-07-22T11:32:32;21.60;99.90
64634;DHT22;51043;52.406;9.690;2022-07-22T11:34:59;21.60;99.90
64634;DHT22;51043;52.406;9.690;2022-07-22T11:37:27;21.50;99.90
64634;DHT22;51043;52.406;9.690;2022-07-22T11:40:04;21.50;99.90
64634;DHT22;51043;52.406;9.690;2022-07-22T11:42:32;21.50;99.90
64634;DHT22;51043;52.406;9.690;2022-07-22T11:44:59;21.40;99.90
64634;DHT22;51043;52.406;9.690;2022-07-22T11:47:26;21.50;99.90
64634;DHT22;51043;52.406;9.690;2022-07-22T11:49:53;21.70;99.90
64634;DHT22;51043;52.406;9.690;2022-07-22T11:52:20;21.80;99.90
64634;DHT22;51043;52.406;9.690;2022-07-22T11:54:47;22.00;99.90
64634;DHT22;51043;52.406;9.690;2022-07-22T11:57:14;22.00;99.90
64634;DHT22;51043;52.406;9.690;2022-07-22T11:59:41;22.00;99.90
64634;DHT22;51043;52.406;9.690;2022-07-22T12:02:09;21.80;99.90
64634;DHT22;51043;52.406;9.690;2022-07-22T12:04:41;21.50;99.90
64634;DHT22;51043;52.406;9.690;2022-07-22T12:07:11;21.40;99.90
64634;DHT22;51043;52.406;9.690;2022-07-22T12:09:41;21.30;99.90
64634;DHT22;51043;52.406;9.690;2022-07-22T12:12:09;21.20;99.90
64634;DHT22;51043;52.406;9.690;2022-07-22T12:14:35;21.10;99.90
64634;DHT22;51043;52.406;9.690;2022-07-22T12:17:05;21.10;99.90
64634;DHT22;51043;52.406;9.690;2022-07-22T12:19:36;21.10;99.90
64634;DHT22;51043;52.406;9.690;2022-07-22T12:22:12;21.20;99.90
64634;DHT22;51043;52.406;9.690;2022-07-22T12:24:57;21.20;99.90
64634;DHT22;51043;52.406;9.690;2022-07-22T12:27:24;21.10;99.90
64634;DHT22;51043;52.406;9.690;2022-07-22T12:29:51;21.30;99.90
64634;DHT22;51043;52.406;9.690;2022-07-22T12:32:28;21.30;99.90
64634;DHT22;51043;52.406;9.690;2022-07-22T12:34:56;21.30;99.90
64634;DHT22;51043;52.406;9.690;2022-07-22T12:37:29;21.40;99.90
64634;DHT22;51043;52.406;9.690;2022-07-22T12:40:10;21.50;99.90
64634;DHT22;51043;52.406;9.690;2022-07-22T12:42:44;21.40;99.90
64634;DHT22;51043;52.406;9.690;2022-07-22T12:45:14;21.20;99.90
64634;DHT22;51043;52.406;9.690;2022-07-22T12:50:19;21.10;99.90
64634;DHT22;51043;52.406;9.690;2022-07-22T12:55:44;21.10;99.90
64634;DHT22;51043;52.406;9.690;2022-07-22T12:58:12;21.20;99.90
64634;DHT22;51043;52.406;9.690;2022-07-22T13:00:48;21.30;99.90
64634;DHT22;51043;52.406;9.690;2022-07-22T13:03:15;21.30;99.90
64634;DHT22;51043;52.406;9.690;2022-07-22T13:05:49;21.40;99.90
64634;DHT22;51043;52.406;9.690;2022-07-22T13:08:17;21.40;99.90
64634;DHT22;51043;52.406;9.690;2022-07-22T13:10:44;21.40;99.90
64634;DHT22;51043;52.406;9.690;2022-07-22T13:13:11;21.20;99.90
64634;DHT22;51043;52.406;9.690;2022-07-22T13:15:38;21.30;99.90
64634;DHT22;51043;52.406;9.690;2022-07-22T13:18:05;21.30;99.90
64634;DHT22;51043;52.406;9.690;2022-07-22T13:20:32;21.20;99.90
64634;DHT22;51043;52.406;9.690;2022-07-22T13:22:59;20.90;99.90
64634;DHT22;51043;52.406;9.690;2022-07-22T13:25:26;20.90;99.90
64634;DHT22;51043;52.406;9.690;2022-07-22T13:27:54;21.10;99.90
64634;DHT22;51043;52.406;9.690;2022-07-22T13:30:22;21.20;99.90
64634;DHT22;51043;52.406;9.690;2022-07-22T13:32:48;21.20;99.90
64634;DHT22;51043;52.406;9.690;2022-07-22T13:35:16;21.30;99.90
64634;DHT22;51043;52.406;9.690;2022-07-22T13:37:44;21.30;99.90
64634;DHT22;51043;52.406;9.690;2022-07-22T13:40:12;21.20;99.90
64634;DHT22;51043;52.406;9.690;2022-07-22T13:42:39;21.20;99.90
64634;DHT22;51043;52.406;9.690;2022-07-22T13:45:06;21.10;99.90
64634;DHT22;51043;52.406;9.690;2022-07-22T13:47:33;21.30;99.90
64634;DHT22;51043;52.406;9.690;2022-07-22T13:50:04;21.40;99.90
64634;DHT22;51043;52.406;9.690;2022-07-22T13:52:31;21.50;99.90
64634;DHT22;51043;52.406;9.690;2022-07-22T13:54:58;21.50;99.90
64634;DHT22;51043;52.406;9.690;2022-07-22T13:57:25;21.50;99.90
64634;DHT22;51043;52.406;9.690;2022-07-22T13:59:52;21.50;99.90
64634;DHT22;51043;52.406;9.690;2022-07-22T14:02:19;21.50;99.90
64634;DHT22;51043;52.406;9.690;2022-07-22T14:04:47;21.40;99.90
64634;DHT22;51043;52.406;9.690;2022-07-22T14:07:14;21.40;99.90
64634;DHT22;51043;52.406;9.690;2022-07-22T14:09:41;21.10;99.90
64634;DHT22;51043;52.406;9.690;2022-07-22T14:12:08;20.90;99.90
64634;DHT22;51043;52.406;9.690;2022-07-22T14:14:35;20.70;99.90
64634;DHT22;51043;52.406;9.690;2022-07-22T14:17:02;20.60;99.90
64634;DHT22;51043;52.406;9.690;2022-07-22T14:19:29;20.50;99.90
64634;DHT22;51043;52.406;9.690;2022-07-22T14:21:56;20.70;99.90
64634;DHT22;51043;52.406;9.690;2022-07-22T14:24:23;20.80;99.90
64634;DHT22;51043;52.406;9.690;2022-07-22T14:26:51;20.80;99.90
64634;DHT22;51043;52.406;9.690;2022-07-22T14:29:18;20.80;99.90
64634;DHT22;51043;52.406;9.690;2022-07-22T14:31:47;20.70;99.90
64634;DHT22;51043;52.406;9.690;2022-07-22T14:34:14;20.70;99.90
64634;DHT22;51043;52.406;9.690;2022-07-22T14:36:41;20.80;99.90
64634;DHT22;51043;52.406;9.690;2022-07-22T14:39:08;20.80;99.90
64634;DHT22;51043;52.406;9.690;2022-07-22T14:41:35;20.80;99.90
64634;DHT22;51043;52.406;9.690;2022-07-22T14:44:02;20.70;99.90
64634;DHT22;51043;52.406;9.690;2022-07-22T14:46:29;20.70;99.90
64634;DHT22;51043;52.406;9.690;2022-07-22T14:48:56;20.80;99.90
64634;DHT22;51043;52.406;9.690;2022-07-22T14:51:23;20.80;99.90
64634;DHT22;51043;52.406;9.690;2022-07-22T14:53:50;20.90;99.90
64634;DHT22;51043;52.406;9.690;2022-07-22T14:56:17;21.00;99.90
64634;DHT22;51043;52.406;9.690;2022-07-22T14:58:45;21.10;99.90
64634;DHT22;51043;52.406;9.690;2022-07-22T15:01:12;20.90;99.90
64634;DHT22;51043;52.406;9.690;2022-07-22T15:03:39;20.90;99.90
64634;DHT22;51043;52.406;9.690;2022-07-22T15:06:06;20.80;99.90
64634;DHT22;51043;52.406;9.690;2022-07-22T15:08:33;20.80;99.90
64634;DHT22;51043;52.406;9.690;2022-07-22T15:11:00;20.70;99.90
64634;DHT22;51043;52.406;9.690;2022-07-22T15:13:28;20.60;99.90
64634;DHT22;51043;52.406;9.690;2022-07-22T15:15:56;20.60;99.90
64634;DHT22;51043;52.406;9.690;2022-07-22T15:18:24;20.60;99.90
64634;DHT22;51043;52.406;9.690;2022-07-22T15:20:51;20.60;99.90
64634;DHT22;51043;52.406;9.690;2022-07-22T15:23:22;20.60;99.90
64634;DHT22;51043;52.406;9.690;2022-07-22T15:25:51;20.60;99.90
64634;DHT22;51043;52.406;9.690;2022-07-22T15:28:18;20.50;99.90
64634;DHT22;51043;52.406;9.690;2022-07-22T15:31:01;20.60;99.90
64634;DHT22;51043;52.406;9.690;2022-07-22T15:33:30;20.50;99.90
64634;DHT22;51043;52.406;9.690;2022-07-22T15:36:08;20.50;99.90
64634;DHT22;51043;52.406;9.690;2022-07-22T15:38:36;20.60;99.90
64634;DHT22;51043;52.406;9.690;2022-07-22T15:41:05;20.60;99.90
64634;DHT22;51043;52.406;9.690;2022-07-22T15:43:32;20.60;99.90
64634;DHT22;51043;52.406;9.690;2022-07-22T15:45:59;20.70;99.90
64634;DHT22;51043;52.406;9.690;2022-07-22T15:48:25;20.80;99.90
64634;DHT22;51043;52.406;9.690;2022-07-22T15:50:52;20.80;99.90
64634;DHT22;51043;52.406;9.690;2022-07-22T15:53:22;20.80;99.90